This is the latest recevied weather packets stored in our database for station/object KB1LTW-13. If no packets are shown the sender has not sent any weather packets the latest 10 day(s).
| Time | Temp. | Humidity | Pressure | Rain* | Wind** | Luminosity | Snow |
|---|---|---|---|---|---|---|---|
| 1777950099 | 12.78° C | 63% | 1013.2 hPa | 0 mm | - | 0 W/m² | - |
| 1777949479 | 12.78° C | 63% | 1013.1 hPa | 0 mm | - | 0 W/m² | - |
| 1777946481 | 13.33° C | 60% | 1013.1 hPa | 0 mm | - | 0 W/m² | - |
| 1777944083 | 13.89° C | 56% | 1012.8 hPa | 0 mm | - | 0 W/m² | - |
| 1777933879 | 20° C | 32% | 1010.4 hPa | 0 mm | - | 30 W/m² | - |
| 1777927884 | 21.67° C | 30% | 1010.6 hPa | 0 mm | - | 178 W/m² | - |
| 1777926675 | 21.11° C | 29% | 1010.8 hPa | 0 mm | - | 172 W/m² | - |
| 1777926081 | 21.11° C | 30% | 1010.8 hPa | 0 mm | - | 195 W/m² | - |
| 1777921286 | 20.56° C | 31% | 1011.2 hPa | 0 mm | - | 296 W/m² | - |
| 1777919505 | 20° C | 30% | 1011.5 hPa | 0 mm | - | 394 W/m² | - |
| 1777916477 | 20° C | 31% | 1011.5 hPa | 0 mm | - | 449 W/m² | - |
| 1777915283 | 20° C | 30% | 1011.9 hPa | 0 mm | - | 788 W/m² | - |
| 1777914088 | 19.44° C | 31% | 1012 hPa | 0 mm | - | 799 W/m² | - |
| 1777910489 | 17.78° C | 30% | 1012.7 hPa | 0 mm | - | 804 W/m² | - |
| 1777907483 | 17.22° C | 34% | 1013.1 hPa | 0 mm | - | 777 W/m² | - |
| 1777903291 | 15.56° C | 36% | 1013.7 hPa | 0 mm | - | 579 W/m² | - |
| 1777902082 | 15° C | 38% | 1013.6 hPa | 0 mm | - | 533 W/m² | - |
| 1777900285 | 13.33° C | 42% | 1013.9 hPa | 0 mm | - | 190 W/m² | - |
| 1777899693 | 13.33° C | 42% | 1014.1 hPa | 0 mm | - | 87 W/m² | - |
| 1777893686 | 8.33° C | 55% | 1014.5 hPa | 0 mm | - | 60 W/m² | - |
| 1777893076 | 7.78° C | 58% | 1014.6 hPa | 0 mm | - | 43 W/m² | - |
| 1777892483 | 7.78° C | 58% | 1014.7 hPa | 0 mm | - | 40 W/m² | - |
| 1777891284 | 6.67° C | 61% | 1014.4 hPa | 0 mm | - | 28 W/m² | - |
| 1777890096 | 6.11° C | 62% | 1014.2 hPa | 0 mm | - | 17 W/m² | - |
| 1777885920 | 5.56° C | 63% | 1013.5 hPa | 0 mm | - | 0 W/m² | - |
* Rain latest hour (hover to see other rain measurements)
** Current wind speed in m/s (hover to see current wind gust speed)